F/V Frisby — FGLS — position and weather

sailwx.info

Track history (hours):
 
Tides and Currents Weather Stations Pressure Air Temp Water Temp Dewpoint Dewpoint Depression Visibility Wind Speed Wind Dir Waves Ship Positions

F/V Frisby

Last reported at 2018-Jun-21 11:48 UTC. Time now 2018-Jun-21 17:36 UTC.
Position N 46°24' W 002°52'.

Length 16 m.

Type: Fishing. MMSI: 228117000.

Date/timePositionNaut miles runAvg speedWind from/ knotsBaromVisibWave heightAir tempDewpointWater temp
2018-Jun-21 11:48N 46°24' W 002°52'1 3.1
2018-Jun-21 11:25N 46°23' W 002°51'1 3.2
2018-Jun-21 11:00N 46°22' W 002°50'2 2.8
2018-Jun-21 10:27N 46°21' W 002°52'2 3.4
2018-Jun-21 10:00N 46°23' W 002°53'2 3.3
2018-Jun-21 09:26N 46°24' W 002°54'2 3.8
2018-Jun-21 08:50N 46°27' W 002°55'1 4.6
2018-Jun-21 08:30N 46°28' W 002°55'1 2.1
2018-Jun-21 07:56N 46°27' W 002°53'2 3.3
2018-Jun-21 07:25N 46°26' W 002°52'1 3.4
2018-Jun-21 07:00N 46°24' W 002°51'2 3.3
2018-Jun-21 06:27N 46°23' W 002°50'1 3.3
2018-Jun-21 06:00N 46°21' W 002°50'2 3.2
2018-Jun-21 05:30N 46°20' W 002°49'2 3.5
2018-Jun-21 05:00N 46°18' W 002°48'2 3.4
2018-Jun-21 04:30N 46°17' W 002°47'2 3.1
2018-Jun-21 04:00N 46°15' W 002°46'5 9.3
2018-Jun-21 03:30N 46°14' W 002°40'5 9.4
2018-Jun-21 03:00N 46°12' W 002°34'5 9.8
2018-Jun-21 02:30N 46°10' W 002°27'5 9.6
2018-Jun-21 02:00N 46°08' W 002°21'5 9.5
2018-Jun-21 01:30N 46°07' W 002°14'5 9.4
2018-Jun-21 01:00N 46°05' W 002°08'5 9.3
2018-Jun-21 00:27N 46°03' W 002°01'4 9.5
2018-Jun-21 00:01N 46°02' W 001°55'5 9.5
2018-Jun-20 23:30N 46°00' W 001°49'5 9.2
2018-Jun-20 23:01N 45°58' W 001°43'5 9.3
2018-Jun-20 22:30N 45°57' W 001°36'5 9.1
2018-Jun-20 22:00N 45°55' W 001°30'4 8.1
2018-Jun-20 21:30N 45°54' W 001°25'3 6.6
2018-Jun-20 21:00N 45°54' W 001°20'1 1.1
2018-Jun-20 20:24N 45°55' W 001°20'0 0.1
2018-Jun-20 19:59N 45°55' W 001°20'0 0.1
2018-Jun-20 19:30N 45°55' W 001°20'0 0.0
2018-Jun-20 18:15N 45°55' W 001°20'0 0.0
2018-Jun-20 17:58N 45°55' W 001°20'0 0.0
2018-Jun-20 17:15N 45°55' W 001°20'0 0.0
2018-Jun-20 16:20N 45°55' W 001°20'0 0.0
2018-Jun-20 12:33N 45°55' W 001°20'0 0.0
2018-Jun-20 12:19N 45°55' W 001°20'0 0.0
2018-Jun-20 12:00N 45°55' W 001°20'0 0.0
2018-Jun-20 11:29N 45°55' W 001°20'0 0.0
2018-Jun-20 10:59N 45°55' W 001°20'0 0.0
2018-Jun-20 10:30N 45°55' W 001°20'0 0.0
2018-Jun-20 10:00N 45°55' W 001°20'0 0.0
2018-Jun-20 09:28N 45°55' W 001°20'0 0.0
2018-Jun-20 09:00N 45°55' W 001°20'0 0.0
2018-Jun-20 08:30N 45°55' W 001°20'0 0.0
2018-Jun-20 07:58N 45°55' W 001°20'0 0.0
2018-Jun-20 06:52N 45°55' W 001°20'0 0.0
2018-Jun-20 06:29N 45°55' W 001°20'0 0.0
2018-Jun-20 03:20N 45°55' W 001°20'0 0.0
2018-Jun-20 02:54N 45°55' W 001°20'0 0.0
2018-Jun-20 02:22N 45°55' W 001°20'0 0.0
2018-Jun-20 01:57N 45°55' W 001°20'0 0.0
2018-Jun-20 01:25N 45°55' W 001°20'0 0.0
2018-Jun-19 21:48N 45°55' W 001°20'0 0.0
2018-Jun-19 21:25N 45°55' W 001°20'0 0.0
2018-Jun-19 21:00N 45°55' W 001°20'0 0.0
2018-Jun-19 20:30N 45°55' W 001°20'0 0.0
2018-Jun-19 19:47N 45°55' W 001°20'0 0.0
2018-Jun-19 19:30N 45°55' W 001°20'0 0.0
2018-Jun-19 18:58N 45°55' W 001°20'0 0.0
2018-Jun-19 17:46N 45°55' W 001°20'0 0.0
2018-Jun-19 16:10N 45°55' W 001°20'0 0.0
2018-Jun-19 14:26N 45°55' W 001°20'0 0.0
2018-Jun-19 13:50N 45°55' W 001°20'0 0.0
2018-Jun-19 13:13N 45°55' W 001°20'0 0.0
2018-Jun-19 12:43N 45°55' W 001°20'0 0.0
2018-Jun-19 12:21N 45°55' W 001°20'0 0.0
2018-Jun-19 11:54N 45°55' W 001°20'0 0.0
2018-Jun-19 11:27N 45°55' W 001°20'0 0.0
2018-Jun-19 11:00N 45°55' W 001°20'0 0.0
2018-Jun-19 10:30N 45°55' W 001°20'0 0.0
2018-Jun-19 10:00N 45°55' W 001°20'0 0.0
2018-Jun-19 09:28N 45°55' W 001°20'0 0.0
2018-Jun-19 09:00N 45°55' W 001°20'0 0.0
2018-Jun-19 08:27N 45°55' W 001°20'0 0.0
2018-Jun-19 08:00N 45°55' W 001°20'0 0.0
2018-Jun-19 07:26N 45°55' W 001°20'0 0.0
2018-Jun-19 06:59N 45°55' W 001°20'0 0.0
2018-Jun-19 06:23N 45°55' W 001°20'0 0.0
2018-Jun-19 06:00N 45°55' W 001°20'0 0.0
2018-Jun-19 05:28N 45°55' W 001°20'0 0.0
2018-Jun-19 00:57N 45°55' W 001°20'0 0.0
2018-Jun-18 20:10N 45°55' W 001°20'0 0.0
2018-Jun-18 20:00N 45°55' W 001°20'0 0.0
2018-Jun-18 18:41N 45°55' W 001°20'0 0.0
2018-Jun-18 17:51N 45°55' W 001°20'0 0.0
2018-Jun-18 14:41N 45°55' W 001°20'0 0.0
2018-Jun-18 14:10N 45°55' W 001°20'0 0.0
2018-Jun-18 13:52N 45°55' W 001°20'0 0.0
2018-Jun-18 13:20N 45°55' W 001°20'0 0.0
2018-Jun-18 12:59N 45°55' W 001°20'0 0.0
2018-Jun-18 10:22N 45°55' W 001°20'0 0.0
2018-Jun-18 09:45N 45°55' W 001°20'0 0.0
2018-Jun-18 09:13N 45°55' W 001°20'0 0.0
2018-Jun-18 08:59N 45°55' W 001°20'0 0.0
2018-Jun-18 08:30N 45°55' W 001°20'0 0.0
2018-Jun-18 07:58N 45°55' W 001°20'0 0.0
2018-Jun-18 07:26N 45°55' W 001°20'0 0.0
2018-Jun-18 07:00N 45°55' W 001°20'0 0.0
2018-Jun-18 06:30N 45°55' W 001°20'0 0.0
2018-Jun-18 05:59N 45°55' W 001°20'0 0.0
2018-Jun-18 05:28N 45°55' W 001°20'0 0.0
2018-Jun-18 04:43N 45°55' W 001°20'0 0.0
2018-Jun-18 04:28N 45°55' W 001°20'0 0.0
2018-Jun-18 03:49N 45°55' W 001°20'0 0.0
2018-Jun-18 03:27N 45°55' W 001°20'0 0.0
2018-Jun-18 02:59N 45°55' W 001°20'0 0.0
2018-Jun-18 02:29N 45°55' W 001°20'0 0.0
2018-Jun-18 02:00N 45°55' W 001°20'0 0.0
2018-Jun-18 01:30N 45°55' W 001°20'0 0.0
2018-Jun-18 01:00N 45°55' W 001°20'0 0.0
2018-Jun-18 00:23N 45°55' W 001°20'0 0.0
2018-Jun-17 23:57N 45°55' W 001°20'0 0.0
2018-Jun-17 18:03N 45°55' W 001°20'0 0.0
2018-Jun-17 17:53N 45°55' W 001°20'0 0.0
2018-Jun-17 16:08N 45°55' W 001°20'0 0.0
2018-Jun-17 15:23N 45°55' W 001°20'0 0.0
2018-Jun-17 13:38N 45°55' W 001°20'0 0.0
2018-Jun-17 13:14N 45°55' W 001°20'0 0.0
2018-Jun-16 20:28N 45°55' W 001°20'0 0.0
2018-Jun-16 19:59N 45°55' W 001°20'0 0.0
2018-Jun-16 19:21N 45°55' W 001°20'0 0.0
2018-Jun-16 18:02N 45°55' W 001°20'0 0.0
2018-Jun-16 17:58N 45°55' W 001°20'0 0.0
2018-Jun-16 17:28N 45°55' W 001°20'0 0.0
2018-Jun-16 13:03N 45°55' W 001°20'0 0.0
2018-Jun-16 12:53N 45°55' W 001°20'0 0.0
2018-Jun-16 07:32N 45°55' W 001°20'0 0.0
2018-Jun-16 07:18N 45°55' W 001°20'0 0.0
2018-Jun-16 06:43N 45°55' W 001°20'0 0.0
2018-Jun-16 06:25N 45°55' W 001°20'0 0.0
2018-Jun-16 05:11N 45°55' W 001°20'0 0.0
2018-Jun-16 04:52N 45°55' W 001°20'0 0.0
2018-Jun-16 04:26N 45°55' W 001°20'0 0.0
2018-Jun-15 21:02N 45°55' W 001°20'0 0.0
2018-Jun-15 17:09N 45°55' W 001°20'0 0.0
2018-Jun-15 16:39N 45°55' W 001°20'0 0.0
2018-Jun-15 16:30N 45°55' W 001°20'0 0.0
2018-Jun-15 15:54N 45°55' W 001°20'0 0.0
2018-Jun-15 15:30N 45°55' W 001°20'0 0.0
2018-Jun-15 14:58N 45°55' W 001°20'0 0.0
2018-Jun-15 11:10N 45°55' W 001°20'0 0.0
2018-Jun-15 10:56N 45°55' W 001°20'0 0.0
2018-Jun-15 09:18N 45°55' W 001°20'0 0.0
2018-Jun-15 08:53N 45°55' W 001°20'0 0.0
2018-Jun-15 08:28N 45°55' W 001°20'0 0.0
2018-Jun-15 07:59N 45°55' W 001°20'0 0.0
2018-Jun-15 07:26N 45°55' W 001°20'0 0.0
2018-Jun-15 06:37N 45°55' W 001°20'0 0.0
2018-Jun-15 06:25N 45°55' W 001°20'0 0.0
2018-Jun-15 05:59N 45°55' W 001°20'0 0.0
2018-Jun-15 03:59N 45°55' W 001°20'1 1.8
2018-Jun-15 03:24N 45°54' W 001°21'2 3.5
2018-Jun-15 02:57N 45°54' W 001°23'4 7.6
2018-Jun-15 02:28N 45°57' W 001°26'3 7.5
2018-Jun-15 02:01N 45°59' W 001°30'4 7.1
2018-Jun-15 01:30N 46°02' W 001°33'3 6.7
2018-Jun-15 01:00N 46°05' W 001°36'4 7.1
2018-Jun-15 00:30N 46°07' W 001°40'5 7.2
2018-Jun-14 23:46N 46°11' W 001°45'2 7.1
2018-Jun-14 23:30N 46°12' W 001°47'3 7.0
2018-Jun-14 23:00N 46°15' W 001°50'3 6.9
2018-Jun-14 22:30N 46°18' W 001°53'3 6.9
2018-Jun-14 22:00N 46°20' W 001°57'3 6.9
2018-Jun-14 21:30N 46°22' W 002°01'3 6.9
2018-Jun-14 21:01N 46°25' W 002°04'3 6.8
2018-Jun-14 20:30N 46°27' W 002°08'3 6.9
2018-Jun-14 20:00N 46°30' W 002°11'4 7.1
2018-Jun-14 19:27N 46°33' W 002°15'3 7.4
2018-Jun-14 19:00N 46°35' W 002°18'51 5.0
2018-Jun-14 08:39N 46°51' W 003°29'2 3.7
2018-Jun-14 08:11N 46°53' W 003°29'1 3.8
2018-Jun-14 08:00N 46°54' W 003°29'2 3.7
2018-Jun-14 07:30N 46°56' W 003°29'2 3.7
2018-Jun-14 07:00N 46°57' W 003°29'2 4.1
2018-Jun-14 06:27N 46°60' W 003°29'1 1.3
2018-Jun-14 06:00N 46°60' W 003°30'2 3.3
2018-Jun-14 05:26N 46°59' W 003°33'2 3.2
2018-Jun-14 04:52N 46°58' W 003°33'1 3.3
2018-Jun-14 04:31N 46°56' W 003°33'2 3.3
2018-Jun-14 03:59N 46°56' W 003°36'2 3.6
2018-Jun-14 03:30N 46°57' W 003°38'2 3.4
2018-Jun-14 03:00N 46°59' W 003°39'2 3.6
2018-Jun-14 02:24N 46°59' W 003°42'1 2.5
2018-Jun-14 02:01N 46°59' W 003°44'2 2.9
2018-Jun-14 01:25N 47°00' W 003°45'1 3.2
2018-Jun-14 00:59N 47°02' W 003°44'2 3.3
2018-Jun-14 00:30N 47°03' W 003°44'2 3.3
2018-Jun-13 23:57N 47°05' W 003°43'2 3.2
2018-Jun-13 23:22N 47°06' W 003°42'2 3.2
2018-Jun-13 22:53N 47°08' W 003°41'1 2.6
2018-Jun-13 22:21N 47°09' W 003°41'2 4.9
2018-Jun-13 22:00N 47°11' W 003°40'5 8.3
2018-Jun-13 21:24N 47°15' W 003°36'3 8.6
2018-Jun-13 21:00N 47°18' W 003°34'5 9.1
2018-Jun-13 20:30N 47°22' W 003°31'5 9.2
2018-Jun-13 20:00N 47°26' W 003°29'5 9.1
2018-Jun-13 19:30N 47°31' W 003°27'4 8.7
2018-Jun-13 19:00N 47°35' W 003°25'4 8.7
2018-Jun-13 18:30N 47°39' W 003°23'3 6.8
2018-Jun-13 18:00N 47°42' W 003°22'1 2.5
2018-Jun-13 17:30N 47°44' W 003°22'0 0.1
2018-Jun-13 17:00N 47°44' W 003°22'0 0.1
2018-Jun-13 16:30N 47°44' W 003°22'0 0.0
2018-Jun-13 16:01N 47°44' W 003°22'0 0.0
2018-Jun-13 15:30N 47°44' W 003°22'0 0.0
2018-Jun-13 15:00N 47°44' W 003°22'0 0.0
2018-Jun-13 14:30N 47°44' W 003°22'0 0.0
2018-Jun-13 14:00N 47°44' W 003°22'0 0.0
2018-Jun-13 13:30N 47°44' W 003°22'0 0.0
2018-Jun-13 13:00N 47°44' W 003°22'0 0.0
2018-Jun-13 12:30N 47°44' W 003°22'0 0.0
2018-Jun-13 12:00N 47°44' W 003°22'0 0.0
2018-Jun-13 11:30N 47°44' W 003°22'0 0.0
2018-Jun-13 11:00N 47°44' W 003°22'0 0.0
2018-Jun-13 10:30N 47°44' W 003°22'0 0.0
2018-Jun-13 10:00N 47°44' W 003°22'0 0.0
2018-Jun-13 09:31N 47°44' W 003°22'0 0.0
2018-Jun-13 09:00N 47°44' W 003°22'0 0.0
2018-Jun-13 08:31N 47°44' W 003°22'0 0.0
2018-Jun-13 08:00N 47°44' W 003°22'0 0.0
2018-Jun-13 07:30N 47°44' W 003°22'0 0.0
2018-Jun-13 07:00N 47°44' W 003°22'0 0.0
2018-Jun-13 06:30N 47°44' W 003°22'0 0.0
2018-Jun-13 06:00N 47°44' W 003°22'0 0.0
2018-Jun-13 05:31N 47°44' W 003°22'0 0.0
2018-Jun-13 05:01N 47°44' W 003°22'0 0.0
2018-Jun-13 04:30N 47°44' W 003°22'0 0.0
2018-Jun-13 04:00N 47°44' W 003°22'0 0.0
2018-Jun-13 03:30N 47°44' W 003°22'0 0.0
2018-Jun-13 03:00N 47°44' W 003°22'0 0.0
2018-Jun-13 02:30N 47°44' W 003°22'0 0.0
2018-Jun-13 02:00N 47°44' W 003°22'0 0.1
2018-Jun-13 01:30N 47°44' W 003°22'0 0.0
2018-Jun-13 01:00N 47°44' W 003°22'0 0.0
2018-Jun-13 00:30N 47°44' W 003°22'3 6.7
2018-Jun-13 00:00N 47°41' W 003°25'4 9.1
2018-Jun-12 23:30N 47°36' W 003°25'5 9.5
2018-Jun-12 23:00N 47°32' W 003°29'5 9.6
2018-Jun-12 22:31N 47°28' W 003°33'4 8.9
2018-Jun-12 22:00N 47°25' W 003°36'5 9.1
2018-Jun-12 21:31N 47°21' W 003°40'5 9.1
2018-Jun-12 21:00N 47°16' W 003°43'3 5.4
2018-Jun-12 20:31N 47°14' W 003°43'2 3.1
2018-Jun-12 20:00N 47°12' W 003°44'8 0.7
2018-Jun-12 07:54N 47°04' W 003°40'6 2.5
2018-Jun-12 05:38N 47°08' W 003°46'1 4.1
2018-Jun-12 05:21N 47°09' W 003°45'2 4.2
2018-Jun-12 04:53N 47°10' W 003°42'1 2.9
2018-Jun-12 04:28N 47°08' W 003°42'1 1.8
2018-Jun-12 04:00N 47°08' W 003°42'1 1.5
2018-Jun-12 03:25N 47°09' W 003°42'1 2.9
2018-Jun-12 02:58N 47°07' W 003°41'2 3.2
2018-Jun-12 02:29N 47°06' W 003°40'1 2.6
2018-Jun-12 02:00N 47°06' W 003°38'4 3.7
2018-Jun-12 00:58N 47°10' W 003°41'3 2.4
2018-Jun-11 23:47N 47°07' W 003°43'3 1.8
2018-Jun-11 22:21N 47°08' W 003°47'  
Track history (hours):
 
Tides and Currents Weather Stations Pressure Air Temp Water Temp Dewpoint Dewpoint Depression Visibility Wind Speed Wind Dir Waves Ship Positions

F/V Frisby

Last reported at 2018-Jun-21 11:48 UTC. Time now 2018-Jun-21 17:36 UTC.
Position N 46°24' W 002°52'.

Length 16 m.

Type: Fishing. MMSI: 228117000.

Date/timePositionNaut miles runAvg speedWind from/ knotsBaromVisibWave heightAir tempDewpointWater temp
2018-Jun-21 11:48N 46°24' W 002°52'1 3.1
2018-Jun-21 11:25N 46°23' W 002°51'1 3.2
2018-Jun-21 11:00N 46°22' W 002°50'2 2.8
2018-Jun-21 10:27N 46°21' W 002°52'2 3.4
2018-Jun-21 10:00N 46°23' W 002°53'2 3.3
2018-Jun-21 09:26N 46°24' W 002°54'2 3.8
2018-Jun-21 08:50N 46°27' W 002°55'1 4.6
2018-Jun-21 08:30N 46°28' W 002°55'1 2.1
2018-Jun-21 07:56N 46°27' W 002°53'2 3.3
2018-Jun-21 07:25N 46°26' W 002°52'1 3.4
2018-Jun-21 07:00N 46°24' W 002°51'2 3.3
2018-Jun-21 06:27N 46°23' W 002°50'1 3.3
2018-Jun-21 06:00N 46°21' W 002°50'2 3.2
2018-Jun-21 05:30N 46°20' W 002°49'2 3.5
2018-Jun-21 05:00N 46°18' W 002°48'2 3.4
2018-Jun-21 04:30N 46°17' W 002°47'2 3.1
2018-Jun-21 04:00N 46°15' W 002°46'5 9.3
2018-Jun-21 03:30N 46°14' W 002°40'5 9.4
2018-Jun-21 03:00N 46°12' W 002°34'5 9.8
2018-Jun-21 02:30N 46°10' W 002°27'5 9.6
2018-Jun-21 02:00N 46°08' W 002°21'5 9.5
2018-Jun-21 01:30N 46°07' W 002°14'5 9.4
2018-Jun-21 01:00N 46°05' W 002°08'5 9.3
2018-Jun-21 00:27N 46°03' W 002°01'4 9.5
2018-Jun-21 00:01N 46°02' W 001°55'5 9.5
2018-Jun-20 23:30N 46°00' W 001°49'5 9.2
2018-Jun-20 23:01N 45°58' W 001°43'5 9.3
2018-Jun-20 22:30N 45°57' W 001°36'5 9.1
2018-Jun-20 22:00N 45°55' W 001°30'4 8.1
2018-Jun-20 21:30N 45°54' W 001°25'3 6.6
2018-Jun-20 21:00N 45°54' W 001°20'1 1.1
2018-Jun-20 20:24N 45°55' W 001°20'0 0.1
2018-Jun-20 19:59N 45°55' W 001°20'0 0.1
2018-Jun-20 19:30N 45°55' W 001°20'0 0.0
2018-Jun-20 18:15N 45°55' W 001°20'0 0.0
2018-Jun-20 17:58N 45°55' W 001°20'0 0.0
2018-Jun-20 17:15N 45°55' W 001°20'0 0.0
2018-Jun-20 16:20N 45°55' W 001°20'0 0.0
2018-Jun-20 12:33N 45°55' W 001°20'0 0.0
2018-Jun-20 12:19N 45°55' W 001°20'0 0.0
2018-Jun-20 12:00N 45°55' W 001°20'0 0.0
2018-Jun-20 11:29N 45°55' W 001°20'0 0.0
2018-Jun-20 10:59N 45°55' W 001°20'0 0.0
2018-Jun-20 10:30N 45°55' W 001°20'0 0.0
2018-Jun-20 10:00N 45°55' W 001°20'0 0.0
2018-Jun-20 09:28N 45°55' W 001°20'0 0.0
2018-Jun-20 09:00N 45°55' W 001°20'0 0.0
2018-Jun-20 08:30N 45°55' W 001°20'0 0.0
2018-Jun-20 07:58N 45°55' W 001°20'0 0.0
2018-Jun-20 06:52N 45°55' W 001°20'0 0.0
2018-Jun-20 06:29N 45°55' W 001°20'0 0.0
2018-Jun-20 03:20N 45°55' W 001°20'0 0.0
2018-Jun-20 02:54N 45°55' W 001°20'0 0.0
2018-Jun-20 02:22N 45°55' W 001°20'0 0.0
2018-Jun-20 01:57N 45°55' W 001°20'0 0.0
2018-Jun-20 01:25N 45°55' W 001°20'0 0.0
2018-Jun-19 21:48N 45°55' W 001°20'0 0.0
2018-Jun-19 21:25N 45°55' W 001°20'0 0.0
2018-Jun-19 21:00N 45°55' W 001°20'0 0.0
2018-Jun-19 20:30N 45°55' W 001°20'0 0.0
2018-Jun-19 19:47N 45°55' W 001°20'0 0.0
2018-Jun-19 19:30N 45°55' W 001°20'0 0.0
2018-Jun-19 18:58N 45°55' W 001°20'0 0.0
2018-Jun-19 17:46N 45°55' W 001°20'0 0.0
2018-Jun-19 16:10N 45°55' W 001°20'0 0.0
2018-Jun-19 14:26N 45°55' W 001°20'0 0.0
2018-Jun-19 13:50N 45°55' W 001°20'0 0.0
2018-Jun-19 13:13N 45°55' W 001°20'0 0.0
2018-Jun-19 12:43N 45°55' W 001°20'0 0.0
2018-Jun-19 12:21N 45°55' W 001°20'0 0.0
2018-Jun-19 11:54N 45°55' W 001°20'0 0.0
2018-Jun-19 11:27N 45°55' W 001°20'0 0.0
2018-Jun-19 11:00N 45°55' W 001°20'0 0.0
2018-Jun-19 10:30N 45°55' W 001°20'0 0.0
2018-Jun-19 10:00N 45°55' W 001°20'0 0.0
2018-Jun-19 09:28N 45°55' W 001°20'0 0.0
2018-Jun-19 09:00N 45°55' W 001°20'0 0.0
2018-Jun-19 08:27N 45°55' W 001°20'0 0.0
2018-Jun-19 08:00N 45°55' W 001°20'0 0.0
2018-Jun-19 07:26N 45°55' W 001°20'0 0.0
2018-Jun-19 06:59N 45°55' W 001°20'0 0.0
2018-Jun-19 06:23N 45°55' W 001°20'0 0.0
2018-Jun-19 06:00N 45°55' W 001°20'0 0.0
2018-Jun-19 05:28N 45°55' W 001°20'0 0.0
2018-Jun-19 00:57N 45°55' W 001°20'0 0.0
2018-Jun-18 20:10N 45°55' W 001°20'0 0.0
2018-Jun-18 20:00N 45°55' W 001°20'0 0.0
2018-Jun-18 18:41N 45°55' W 001°20'0 0.0
2018-Jun-18 17:51N 45°55' W 001°20'0 0.0
2018-Jun-18 14:41N 45°55' W 001°20'0 0.0
2018-Jun-18 14:10N 45°55' W 001°20'0 0.0
2018-Jun-18 13:52N 45°55' W 001°20'0 0.0
2018-Jun-18 13:20N 45°55' W 001°20'0 0.0
2018-Jun-18 12:59N 45°55' W 001°20'0 0.0
2018-Jun-18 10:22N 45°55' W 001°20'0 0.0
2018-Jun-18 09:45N 45°55' W 001°20'0 0.0
2018-Jun-18 09:13N 45°55' W 001°20'0 0.0
2018-Jun-18 08:59N 45°55' W 001°20'0 0.0
2018-Jun-18 08:30N 45°55' W 001°20'0 0.0
2018-Jun-18 07:58N 45°55' W 001°20'0 0.0
2018-Jun-18 07:26N 45°55' W 001°20'0 0.0
2018-Jun-18 07:00N 45°55' W 001°20'0 0.0
2018-Jun-18 06:30N 45°55' W 001°20'0 0.0
2018-Jun-18 05:59N 45°55' W 001°20'0 0.0
2018-Jun-18 05:28N 45°55' W 001°20'0 0.0
2018-Jun-18 04:43N 45°55' W 001°20'0 0.0
2018-Jun-18 04:28N 45°55' W 001°20'0 0.0
2018-Jun-18 03:49N 45°55' W 001°20'0 0.0
2018-Jun-18 03:27N 45°55' W 001°20'0 0.0
2018-Jun-18 02:59N 45°55' W 001°20'0 0.0
2018-Jun-18 02:29N 45°55' W 001°20'0 0.0
2018-Jun-18 02:00N 45°55' W 001°20'0 0.0
2018-Jun-18 01:30N 45°55' W 001°20'0 0.0
2018-Jun-18 01:00N 45°55' W 001°20'0 0.0
2018-Jun-18 00:23N 45°55' W 001°20'0 0.0
2018-Jun-17 23:57N 45°55' W 001°20'0 0.0
2018-Jun-17 18:03N 45°55' W 001°20'0 0.0
2018-Jun-17 17:53N 45°55' W 001°20'0 0.0
2018-Jun-17 16:08N 45°55' W 001°20'0 0.0
2018-Jun-17 15:23N 45°55' W 001°20'0 0.0
2018-Jun-17 13:38N 45°55' W 001°20'0 0.0
2018-Jun-17 13:14N 45°55' W 001°20'0 0.0
2018-Jun-16 20:28N 45°55' W 001°20'0 0.0
2018-Jun-16 19:59N 45°55' W 001°20'0 0.0
2018-Jun-16 19:21N 45°55' W 001°20'0 0.0
2018-Jun-16 18:02N 45°55' W 001°20'0 0.0
2018-Jun-16 17:58N 45°55' W 001°20'0 0.0
2018-Jun-16 17:28N 45°55' W 001°20'0 0.0
2018-Jun-16 13:03N 45°55' W 001°20'0 0.0
2018-Jun-16 12:53N 45°55' W 001°20'0 0.0
2018-Jun-16 07:32N 45°55' W 001°20'0 0.0
2018-Jun-16 07:18N 45°55' W 001°20'0 0.0
2018-Jun-16 06:43N 45°55' W 001°20'0 0.0
2018-Jun-16 06:25N 45°55' W 001°20'0 0.0
2018-Jun-16 05:11N 45°55' W 001°20'0 0.0
2018-Jun-16 04:52N 45°55' W 001°20'0 0.0
2018-Jun-16 04:26N 45°55' W 001°20'0 0.0
2018-Jun-15 21:02N 45°55' W 001°20'0 0.0
2018-Jun-15 17:09N 45°55' W 001°20'0 0.0
2018-Jun-15 16:39N 45°55' W 001°20'0 0.0
2018-Jun-15 16:30N 45°55' W 001°20'0 0.0
2018-Jun-15 15:54N 45°55' W 001°20'0 0.0
2018-Jun-15 15:30N 45°55' W 001°20'0 0.0
2018-Jun-15 14:58N 45°55' W 001°20'0 0.0
2018-Jun-15 11:10N 45°55' W 001°20'0 0.0
2018-Jun-15 10:56N 45°55' W 001°20'0 0.0
2018-Jun-15 09:18N 45°55' W 001°20'0 0.0
2018-Jun-15 08:53N 45°55' W 001°20'0 0.0
2018-Jun-15 08:28N 45°55' W 001°20'0 0.0
2018-Jun-15 07:59N 45°55' W 001°20'0 0.0
2018-Jun-15 07:26N 45°55' W 001°20'0 0.0
2018-Jun-15 06:37N 45°55' W 001°20'0 0.0
2018-Jun-15 06:25N 45°55' W 001°20'0 0.0
2018-Jun-15 05:59N 45°55' W 001°20'0 0.0
2018-Jun-15 03:59N 45°55' W 001°20'1 1.8
2018-Jun-15 03:24N 45°54' W 001°21'2 3.5
2018-Jun-15 02:57N 45°54' W 001°23'4 7.6
2018-Jun-15 02:28N 45°57' W 001°26'3 7.5
2018-Jun-15 02:01N 45°59' W 001°30'4 7.1
2018-Jun-15 01:30N 46°02' W 001°33'3 6.7
2018-Jun-15 01:00N 46°05' W 001°36'4 7.1
2018-Jun-15 00:30N 46°07' W 001°40'5 7.2
2018-Jun-14 23:46N 46°11' W 001°45'2 7.1
2018-Jun-14 23:30N 46°12' W 001°47'3 7.0
2018-Jun-14 23:00N 46°15' W 001°50'3 6.9
2018-Jun-14 22:30N 46°18' W 001°53'3 6.9
2018-Jun-14 22:00N 46°20' W 001°57'3 6.9
2018-Jun-14 21:30N 46°22' W 002°01'3 6.9
2018-Jun-14 21:01N 46°25' W 002°04'3 6.8
2018-Jun-14 20:30N 46°27' W 002°08'3 6.9
2018-Jun-14 20:00N 46°30' W 002°11'4 7.1
2018-Jun-14 19:27N 46°33' W 002°15'3 7.4
2018-Jun-14 19:00N 46°35' W 002°18'51 5.0
2018-Jun-14 08:39N 46°51' W 003°29'2 3.7
2018-Jun-14 08:11N 46°53' W 003°29'1 3.8
2018-Jun-14 08:00N 46°54' W 003°29'2 3.7
2018-Jun-14 07:30N 46°56' W 003°29'2 3.7
2018-Jun-14 07:00N 46°57' W 003°29'2 4.1
2018-Jun-14 06:27N 46°60' W 003°29'1 1.3
2018-Jun-14 06:00N 46°60' W 003°30'2 3.3
2018-Jun-14 05:26N 46°59' W 003°33'2 3.2
2018-Jun-14 04:52N 46°58' W 003°33'1 3.3
2018-Jun-14 04:31N 46°56' W 003°33'2 3.3
2018-Jun-14 03:59N 46°56' W 003°36'2 3.6
2018-Jun-14 03:30N 46°57' W 003°38'2 3.4
2018-Jun-14 03:00N 46°59' W 003°39'2 3.6
2018-Jun-14 02:24N 46°59' W 003°42'1 2.5
2018-Jun-14 02:01N 46°59' W 003°44'2 2.9
2018-Jun-14 01:25N 47°00' W 003°45'1 3.2
2018-Jun-14 00:59N 47°02' W 003°44'2 3.3
2018-Jun-14 00:30N 47°03' W 003°44'2 3.3
2018-Jun-13 23:57N 47°05' W 003°43'2 3.2
2018-Jun-13 23:22N 47°06' W 003°42'2 3.2
2018-Jun-13 22:53N 47°08' W 003°41'1 2.6
2018-Jun-13 22:21N 47°09' W 003°41'2 4.9
2018-Jun-13 22:00N 47°11' W 003°40'5 8.3
2018-Jun-13 21:24N 47°15' W 003°36'3 8.6
2018-Jun-13 21:00N 47°18' W 003°34'5 9.1
2018-Jun-13 20:30N 47°22' W 003°31'5 9.2
2018-Jun-13 20:00N 47°26' W 003°29'5 9.1
2018-Jun-13 19:30N 47°31' W 003°27'4 8.7
2018-Jun-13 19:00N 47°35' W 003°25'4 8.7
2018-Jun-13 18:30N 47°39' W 003°23'3 6.8
2018-Jun-13 18:00N 47°42' W 003°22'1 2.5
2018-Jun-13 17:30N 47°44' W 003°22'0 0.1
2018-Jun-13 17:00N 47°44' W 003°22'0 0.1
2018-Jun-13 16:30N 47°44' W 003°22'0 0.0
2018-Jun-13 16:01N 47°44' W 003°22'0 0.0
2018-Jun-13 15:30N 47°44' W 003°22'0 0.0
2018-Jun-13 15:00N 47°44' W 003°22'0 0.0
2018-Jun-13 14:30N 47°44' W 003°22'0 0.0
2018-Jun-13 14:00N 47°44' W 003°22'0 0.0
2018-Jun-13 13:30N 47°44' W 003°22'0 0.0
2018-Jun-13 13:00N 47°44' W 003°22'0 0.0
2018-Jun-13 12:30N 47°44' W 003°22'0 0.0
2018-Jun-13 12:00N 47°44' W 003°22'0 0.0
2018-Jun-13 11:30N 47°44' W 003°22'0 0.0
2018-Jun-13 11:00N 47°44' W 003°22'0 0.0
2018-Jun-13 10:30N 47°44' W 003°22'0 0.0
2018-Jun-13 10:00N 47°44' W 003°22'0 0.0
2018-Jun-13 09:31N 47°44' W 003°22'0 0.0
2018-Jun-13 09:00N 47°44' W 003°22'0 0.0
2018-Jun-13 08:31N 47°44' W 003°22'0 0.0
2018-Jun-13 08:00N 47°44' W 003°22'0 0.0
2018-Jun-13 07:30N 47°44' W 003°22'0 0.0
2018-Jun-13 07:00N 47°44' W 003°22'0 0.0
2018-Jun-13 06:30N 47°44' W 003°22'0 0.0
2018-Jun-13 06:00N 47°44' W 003°22'0 0.0
2018-Jun-13 05:31N 47°44' W 003°22'0 0.0
2018-Jun-13 05:01N 47°44' W 003°22'0 0.0
2018-Jun-13 04:30N 47°44' W 003°22'0 0.0
2018-Jun-13 04:00N 47°44' W 003°22'0 0.0
2018-Jun-13 03:30N 47°44' W 003°22'0 0.0
2018-Jun-13 03:00N 47°44' W 003°22'0 0.0
2018-Jun-13 02:30N 47°44' W 003°22'0 0.0
2018-Jun-13 02:00N 47°44' W 003°22'0 0.1
2018-Jun-13 01:30N 47°44' W 003°22'0 0.0
2018-Jun-13 01:00N 47°44' W 003°22'0 0.0
2018-Jun-13 00:30N 47°44' W 003°22'3 6.7
2018-Jun-13 00:00N 47°41' W 003°25'4 9.1
2018-Jun-12 23:30N 47°36' W 003°25'5 9.5
2018-Jun-12 23:00N 47°32' W 003°29'5 9.6
2018-Jun-12 22:31N 47°28' W 003°33'4 8.9
2018-Jun-12 22:00N 47°25' W 003°36'5 9.1
2018-Jun-12 21:31N 47°21' W 003°40'5 9.1
2018-Jun-12 21:00N 47°16' W 003°43'3 5.4
2018-Jun-12 20:31N 47°14' W 003°43'2 3.1
2018-Jun-12 20:00N 47°12' W 003°44'8 0.7
2018-Jun-12 07:54N 47°04' W 003°40'6 2.5
2018-Jun-12 05:38N 47°08' W 003°46'1 4.1
2018-Jun-12 05:21N 47°09' W 003°45'2 4.2
2018-Jun-12 04:53N 47°10' W 003°42'1 2.9
2018-Jun-12 04:28N 47°08' W 003°42'1 1.8
2018-Jun-12 04:00N 47°08' W 003°42'1 1.5
2018-Jun-12 03:25N 47°09' W 003°42'1 2.9
2018-Jun-12 02:58N 47°07' W 003°41'2 3.2
2018-Jun-12 02:29N 47°06' W 003°40'1 2.6
2018-Jun-12 02:00N 47°06' W 003°38'4 3.7
2018-Jun-12 00:58N 47°10' W 003°41'3 2.4
2018-Jun-11 23:47N 47°07' W 003°43'3 1.8
2018-Jun-11 22:21N 47°08' W 003°47'  

Dump ship's entire track history